events-overview

Kinetic Half

 

Overall Men

Lake Anna State Park - Spotsylvania, VA 5/14/2011 07:00AM

** Results are for the private use of participants and are the Intellectual Property of Set Up Events. Unauthorized use of these results is prohibited.

Place Bib Ag S NAME city/state Rank SWIM Rank T1 Rank BIKE Rank T2 Rank RUN PENALTY TIME DQ
152230MMichael HarlowRichmond VA1100:27:48100:01:261402:23:141700:01:01101:21:36 04:15:03 
241036MMike GadzinskiSicklerville NJ500:26:581000:01:43302:17:391800:01:011901:29:1300:04:0004:20:32 
326742MPeter RoncoHorseheads NY5600:32:173900:02:031102:22:414100:01:09201:22:27 04:20:36 
448733MPhilip SchmidtWashington DC400:26:542400:01:533402:27:17700:00:51501:24:40 04:21:34 
549532MWilliam KuperFairfax VA3900:31:132000:01:511302:22:581400:00:58601:25:08 04:22:07 
656629MBen FarrellVirginia Beach VA5200:32:04900:01:40202:16:271100:00:562701:32:20 04:23:25 
747034MFabrice GuillaumeAshburn VA4700:31:32500:01:331202:22:442100:01:021001:26:45 04:23:34 
840736MBrady DehoustOak Hill VA4000:31:203100:01:561902:24:3110200:01:31401:24:21 04:23:37 
943435MHenry TragleLeesburg VA3600:31:063800:02:03502:19:301500:00:593701:34:06 04:27:41 
1060925MColin GundlingPittsburgh PA900:27:447300:02:174602:28:159300:01:271801:29:09 04:28:50 
1138938MShawn YoungColumbia MD12000:34:5421900:03:241602:24:085800:01:15801:25:21 04:29:00 
1243535MTyler Van RensselaerHenrico VA6100:32:461100:01:444502:28:004300:01:10901:25:45 04:29:23 
1338838MNate SpongReston VA10200:34:1412300:02:424302:27:495300:01:13301:24:01 04:29:57 
1459327MDan HarrisFalls Church VA700:27:334900:02:103902:27:4223900:02:252101:30:18 04:30:07 
1529041MBarry YoungRuckersville VA9100:33:50700:01:37802:21:091200:00:573501:33:43 04:31:15 
1637738MPatrick DarkenMaple Glen PA17300:36:422700:01:54902:21:322900:01:052201:30:39 04:31:50 
1739737MKarsten KraemerQuantico VA13900:35:5117700:03:031502:23:2716700:01:551601:28:06 04:32:20 
1841836MJustin RiddleKing George VA1000:27:454000:02:051002:21:56100:00:397901:40:09 04:32:31 
1942835MKeith GilesArlington VA17900:36:489600:02:292502:25:424600:01:111301:27:47 04:33:55 
2028541MXavier PassyAshburn VA6600:33:088200:02:23402:19:172600:01:046501:38:26 04:34:15 
2152830MTimothy OttoPhiladelphia PA6500:32:586800:02:165102:28:447100:01:201701:29:00 04:34:17 
2251331MNick NothoffWinston-Salem NC11100:34:275600:02:125202:28:4511300:01:361201:27:41 04:34:39 
2340037MAdam NorthupRichmond VA8200:33:388800:02:261702:24:118000:01:233101:33:15 04:34:51 
2457029MJustin MoyerRichmond VA1400:28:228000:02:21602:21:035100:01:139601:42:13 04:35:10 
2538738MDerek RussellVirginia Beach VA600:27:162800:01:543002:26:3210500:01:326201:37:57 04:35:10 
2649732MGregory MatheRichmond VA4900:31:491200:01:452402:25:42500:00:474601:35:37 04:35:38 
2725243MTed WaughSpringfield VA10300:34:1614900:02:512202:25:345000:01:122801:32:20 04:36:11 
2852730MRyan MyersBristow VA2000:29:05800:01:392102:25:254400:01:117001:39:01 04:36:19 
2963820MEvan FultonMechanicsville VA1600:28:493700:02:012302:25:38400:00:467201:39:11 04:36:23 
3051730MRyan DayChristiansburg VA5400:32:104600:02:07102:15:534800:01:129001:41:1800:04:0004:36:39 
PlaceBibAgSNAMEcity/stateRankSWIMRankT1RankBIKERankT2RankRUNPENALTYTIMEDQ
3126842MSteve RussellSeverna Park MD11400:34:4017800:03:056802:30:3825600:02:341101:27:19 04:38:14 
3217045MEric MooreCharlottesville VA10700:34:215300:02:112802:25:5911500:01:374001:34:36 04:38:42 
3340936MJoshua FrickBethesda MD4400:31:2814200:02:48702:21:0431800:03:188401:40:22 04:38:58 
3425343MMcCoy WeymouthChadds Ford PA5800:32:223400:02:005302:28:519400:01:284501:35:25 04:40:03 
3512948MAl RogersRichmond VA2800:29:4314600:02:504702:28:2315600:01:516101:37:51 04:40:37 
3629240MDaniel BallinWilliamsburg VA4200:31:234500:02:071802:24:2019900:02:068801:40:46 04:40:40 
3752630MBarry MillerWashington DC2600:29:352100:01:513802:27:4110400:01:327801:40:05 04:40:42 
3814347MGlenn OxfordFredericksburg VA18400:36:5734800:05:043502:27:3322200:02:172001:30:10 04:41:58 
3930340MEd KoontzBethel Park PA9300:33:576600:02:156902:30:3910100:01:313401:33:39 04:42:00 
4039237MRichard CrowleyPittsburgh PA8700:33:4513400:02:4611102:36:4113400:01:421401:27:52 04:42:44 
4130840MBob NedleyMonessen PA16700:36:32400:01:323202:26:582400:01:035301:36:43 04:42:45 
4227541MVictor BauerPittsburgh PA14600:36:0313900:02:468802:34:1214600:01:481501:28:04 04:42:51 
4337439MMichael StevensonArlington VA1500:28:257200:02:178902:34:183000:01:055701:37:12 04:43:15 
4451930MAnthony GonzalezArnold MD9200:33:562500:01:536302:29:508200:01:234801:36:15 04:43:15 
4527441MChad AlbrightRoanoke VA12700:35:0616800:02:595502:29:0418900:02:013801:34:29 04:43:38 
4652530MBen McCallHerndon VA6800:33:10200:01:304102:27:444500:01:118201:40:20 04:43:53 
478650MMark RobbinsCharlottesville VA4500:31:2913100:02:446602:30:2419500:02:045901:37:33 04:44:12 
4822744MRaymond MatthewsArlington VA3800:31:135800:02:136402:29:5210000:01:317501:39:33 04:44:19 
4948433MJeff JoynerFredericksburg VA10500:34:205700:02:133702:27:4012800:01:396601:38:40 04:44:30 
5052930MScott ShumateVirginia Beach VA3500:30:492600:01:537502:32:026200:01:176901:38:59 04:44:58 
5144035MChad WolfAlexandria VA8800:33:466900:02:168602:33:254200:01:102401:31:3300:04:0004:46:09 
5262523MJacob GildenWashington DC14000:35:539700:02:3010702:36:055400:01:132301:30:46 04:46:26 
5316745MWes HayesSuffolk VA9400:33:59300:01:317302:31:31200:00:426801:38:56 04:46:37 
5436239MCraig EllisHerndon VA19700:37:2618800:03:105402:29:0416900:01:564401:35:15 04:46:49 
5524743MJon RittlingRichmond VA3100:29:541700:01:474902:28:376300:01:179101:41:4500:04:0004:47:20 
5662723MAbe ShearerHarrisonburg VA15600:36:1316500:02:594402:27:502300:01:037301:39:17 04:47:20 
572855MGreg GuintherRichmond VA11500:34:4410800:02:352002:24:587800:01:2211301:44:24 04:48:02 
5831340MChristopher RatchfordMidlothian VA6700:33:097600:02:182702:25:559200:01:2712501:45:42 04:48:29 
5912348MGeordie EdmistonHollidaysburg PA7300:33:2711400:02:389902:35:221600:01:005001:36:28 04:48:51 
6030940MJay PelusoRichmond VA300:26:182200:01:524802:28:264900:01:1218201:51:07 04:48:53 
6139337MAndrew DuffeNorfolk VA7600:33:3020700:03:206502:29:5420500:02:088001:40:09 04:49:00 
PlaceBibAgSNAMEcity/stateRankSWIMRankT1RankBIKERankT2RankRUNPENALTYTIMEDQ
6263321MBradley HaagPatuxent River MD7000:33:22600:01:3715002:41:141000:00:563001:32:55 04:50:02 
6347534MMichael PietRaeford NC1200:27:522900:01:556102:29:317000:01:1916801:49:42 04:50:18 
6440337MRichard SouterRichmond VA3700:31:079100:02:275002:28:415500:01:1413801:46:54 04:50:21 
6516345MDaniel AndersonRockville MD13600:35:3722900:03:298502:33:248800:01:264901:36:28 04:50:22 
6663421MMichael HeppBethesda MD800:27:423300:01:5914202:39:4810800:01:338501:40:28 04:51:29 
6729840MRyan ErdelyWashington PA15200:36:069000:02:2720002:46:237200:01:21701:25:18 04:51:33 
6864120MRyan SteinbachEllicot City MD7500:33:271900:01:5117302:43:165900:01:152501:32:00 04:51:47 
6940836MBryan FrankGaithersburg MD1800:28:5612500:02:4317902:44:198300:01:243901:34:36 04:51:56 
704654MJeff OxmanRockville MD5300:32:0512200:02:4110002:35:2810700:01:328101:40:16 04:52:00 
715752MDennis CruffPoquoson VA4300:31:263000:01:565902:29:206700:01:1915101:48:22 04:52:22 
7235939MThomas BouberCharlottesville VA7100:33:236000:02:132902:26:0713600:01:4416501:49:26 04:52:52 
7343935MJames WilsonWashington DC24300:39:2613600:02:463602:27:358700:01:259501:42:13 04:53:24 
7443035MSean MartinGainesville VA200:26:1510400:02:3316502:42:3910300:01:318701:40:36 04:53:33 
7551531MMarco TerenghiGlen Allen VA18600:37:011300:01:467702:32:152700:01:056001:37:4700:04:0004:53:51 
7635839MTodd BibbVirginia Beach VA29500:41:438300:02:249202:34:4013900:01:453301:33:34 04:54:04 
777251MPaul IngholtVienna VA2200:29:1912100:02:4010302:35:4426200:02:3811001:43:50 04:54:10 
7860426MBrian WalterWarsaw VA2500:29:323200:01:587802:32:233500:01:0716401:49:16 04:54:15 
7917345MPatrick OconnorKingston PA2400:29:2914500:02:487002:30:4228500:02:5317001:49:44 04:55:35 
8037539MJohn ThompsonSalem CT2700:29:414400:02:0719502:46:033100:01:055501:36:54 04:55:48 
8158628MKevin PilcherFairfax VA7800:33:344300:02:0616802:42:5917600:01:584301:35:13 04:55:49 
8251630MFabrice BeaulieuFalls Church VA9700:34:071500:01:478002:32:53800:00:5112901:46:19 04:55:55 
8346734MBryan DealMechanicsville VA12600:35:0612800:02:434002:27:434000:01:0917101:49:50 04:56:29 
8422844MBrad OnofrioGlen Allen VA12100:34:549400:02:287102:31:0013000:01:4213601:46:49 04:56:51 
8528741MPaul TalbotNokesville VA10800:34:2213200:02:447202:31:28900:00:5514201:47:27 04:56:53 
8630040MRobert HaywardVienna VA13400:35:3513300:02:4516402:42:3711100:01:354201:34:52 04:57:21 
8747234MMark KlemannSavona NY4800:31:467000:02:1613302:39:0417700:01:5910101:42:52 04:57:55 
8842935MDanny HayesWashington DC28200:41:078900:02:267602:32:0611800:01:378901:40:53 04:58:08 
8937938MDaniel EdwardsWashington DC5000:31:587500:02:1720102:46:331300:00:575201:36:34 04:58:17 
9022544MMichael LombardoElkridge MD24500:39:2820000:03:1610102:35:4113500:01:436301:38:16 04:58:23 
9163221MScott FritzLynchburg VA4600:31:2911300:02:3811902:37:269800:01:3012201:45:26 04:58:28 
9247334MAlan MossKing George VA2100:29:136100:02:1410502:35:5421400:02:1316001:48:59 04:58:32 
PlaceBibAgSNAMEcity/stateRankSWIMRankT1RankBIKERankT2RankRUNPENALTYTIMEDQ
9326142MEd KleinRichmond VA25600:39:5210700:02:349102:34:2817800:01:597601:39:50 04:58:41 
9412848MThomas McElligottRichmond VA3000:29:464800:02:0912502:38:3514100:01:4613301:46:40 04:58:53 
9553030MRyan TrollWashington DC18100:36:5111200:02:379502:34:5612100:01:3810301:43:07 04:59:07 
9636039MKevin BurchamColonial Heights VA16200:36:2719100:03:1216702:42:4119000:02:024101:34:49 04:59:08 
9760825MRyan FoxPetersburg VA22000:38:2610200:02:316702:30:3018200:02:0012601:45:43 04:59:08 
9853130MMichael WolfeVirginia Beach VA17800:36:4621200:03:2215102:41:172800:01:055401:36:48 04:59:17 
9957828MRob BurnettHanover MD25300:39:405000:02:1016602:42:392500:01:033601:33:52 04:59:22 
1006452MJohn MazurArlington VA8300:33:4120100:03:1710202:35:4217100:01:5711701:44:49 04:59:23 
10138438MRoland KentSuffolk VA6200:32:529900:02:302602:25:4415100:01:4919701:52:4000:04:0004:59:33 
10239137MDon BautistaVirginia Beach VA20400:37:38         04:59:45 
10348233MAdam GoergeRuckersville VA8600:33:455200:02:119402:34:549000:01:2714701:48:00 05:00:14 
1042256MJean Le DemChevy Chase MD29100:41:3412900:02:447402:31:54300:00:4510701:43:32 05:00:26 
10511749MEd SchmidlinCorning NY11800:34:5230400:04:2211702:37:2319400:02:049401:42:07 05:00:46 
10642236MJason TaylorWashington DC20500:37:395400:02:1121602:47:2111900:01:372601:32:04 05:00:51 
10726242MJason KnowlesAlexandria VA24600:39:306400:02:1511402:37:0422800:02:208301:40:21 05:01:28 
1084754MPaul PattersonWyncote PA12400:35:0025400:03:427902:32:3014700:01:4815401:48:31 05:01:29 
10922044MChris HaasWilliamsburg VA18800:37:0422600:03:285802:29:1725100:02:3216301:49:10 05:01:29 
11027242MJed VanichkachornGlen Allen VA12800:35:088400:02:2512802:38:467900:01:2211201:44:03 05:01:42 
11141136MAaron JordanWashington DC    15702:41:4112600:01:3917701:50:15 05:01:46Y
11228341MJay MarkiewiczMidlothian VA19500:37:168600:02:2514702:40:178900:01:268601:40:34 05:01:58 
1138250MJohn DudaLatrobe PA14900:36:0415800:02:579602:35:0016000:01:5313701:46:50 05:02:42 
11411649MSteve MabeusMontclair VA7400:33:2715100:02:5111302:36:516800:01:1915301:48:29 05:02:56 
11547634MTravis SiehndelWashington DC7200:33:267900:02:1916302:42:305700:01:1510801:43:35 05:03:03 
11648933MJack TisneWashington DC11900:34:5318300:03:0821502:47:1616500:01:554701:36:05 05:03:15 
11716146MDan SumbsRichmond VA14100:35:561600:01:475702:29:143700:01:0822101:55:15 05:03:17 
11814047MJohn LehmanBeaver PA10000:34:1316400:02:599702:35:0230600:03:1014901:48:12 05:03:35 
11956729MGrant GartonWashington DC32400:43:088700:02:2514002:39:362200:01:025801:37:32 05:03:42 
1208550MGreg MillerSuffolk VA20700:37:463500:02:008302:32:578400:01:2417501:49:57 05:04:01 
12126542MGlenn OlsenRockville MD12300:34:564700:02:083102:26:4221300:02:1324601:58:16 05:04:14 
12236839MReza MahbodArlington VA23500:39:1232500:04:3513402:39:1017000:01:567401:39:27 05:04:18 
12358228MJoseph HararArlington VA29200:41:3722000:03:256202:29:4414000:01:4514601:47:55 05:04:24 
PlaceBibAgSNAMEcity/stateRankSWIMRankT1RankBIKERankT2RankRUNPENALTYTIMEDQ
12435739MJoshua BeardsleySouth Riding VA20100:37:3329700:04:1813002:38:5814400:01:469301:41:58 05:04:31 
1258750MBill UlmerUniontown PA8900:33:4714300:02:4812202:37:359700:01:3015901:48:57 05:04:35 
12625842MEric GlymphChesterfield VA26600:40:167400:02:1711802:37:2610900:01:3310401:43:10 05:04:40 
12735639MTom AntisdelWashington DC13800:35:4134500:05:0015502:41:2830900:03:137701:39:55 05:05:15 
12862224MRyan MacManusArlington VA16100:36:268500:02:2525202:51:4722700:02:202901:32:33 05:05:29 
12914746MMichael BabaSilver Spring MD9900:34:1228300:04:0620302:46:4116600:01:556701:38:52 05:05:43 
13042535MAdrian CoxWashington DC31900:42:589800:02:3015302:41:26600:00:496401:38:23 05:06:05 
1315453MSerge ReveilleAlexandria VA27700:40:5014700:02:5012702:38:439900:01:319701:42:14 05:06:07 
1321160MTom KeeleyChesapeake VA26300:40:1018400:03:0913202:39:013400:01:0710001:42:51 05:06:16 
13325442MEric AustinArlington VA32200:43:0110500:02:338402:33:0723800:02:2512101:45:14 05:06:18 
1348450MMark LanderVienna VA14500:36:0223300:03:318202:32:5427500:02:4318401:51:11 05:06:20 
13539837MKent LassmanAlexandria VA1700:28:534100:02:0514102:39:4411600:01:3721701:55:00 05:07:17 
13652430MDavid KunnenRichmond VA18700:37:047700:02:1813702:39:258600:01:2514001:47:18 05:07:28 
13751231MWes NeubeckVirginia Beach VA3300:30:223600:02:0016102:42:1112300:01:3818901:51:48 05:07:57 
13840636MChad BeemillerVirginia Beach VA16000:36:2626300:03:4710802:36:1428100:02:4915801:48:43 05:07:57 
13959826MTyler BurkeWashington DC32900:43:425900:02:1321802:47:266900:01:193201:33:21 05:07:59 
14012048MRob AndersonFarmville VA5700:32:195100:02:1011502:37:1022600:02:2020701:54:06 05:08:03 
1415852MMark HanlonFairfax VA14200:35:5710300:02:3316002:42:0817500:01:5812701:45:53 05:08:28 
14263720MKyle BurdickAnnapolis MD15500:36:1221700:03:2419102:45:367700:01:229901:42:24 05:08:56 
14328941MMatt WitlinOak Hill VA5500:32:1635100:05:1117102:43:0334900:04:0511601:44:37 05:09:10 
1446552MKen NailCharlottesville VA15100:36:056200:02:1514602:40:119600:01:2916601:49:28 05:09:26 
14540237MAndrew RoseGlen Allen VA19900:37:3025700:03:459002:34:1823300:02:2318601:51:35 05:09:29 
14631740MChristopher WheelerBethesda MD12900:35:2127200:03:5924702:51:0328700:02:555101:36:34 05:09:49 
14723443MTodd EvelandSmithfield VA20200:37:3711600:02:3814402:39:586000:01:1615501:48:39 05:10:06 
14849132MMichael ChaneyWashington DC8400:33:4214000:02:4717702:44:128100:01:2315001:48:14 05:10:16 
14941736MShaun NicholsChester VA3200:30:2113800:02:4611602:37:1516200:01:5324301:58:08 05:10:22 
15026442MChris MartinTakoma Park MD19600:37:178100:02:2120602:46:422000:01:0110501:43:14 05:10:34 
15113447MKenneth DownerMechanicsburg PA20300:37:3821400:03:2317602:44:0911400:01:3611101:44:01 05:10:45 
15231640MDavid VielbigAshburn VA22500:38:3532000:04:3310602:36:0124000:02:2516901:49:43 05:11:14 
15312148MGraeme DouglasWashington DC32800:43:337100:02:1715802:41:4412000:01:389801:42:15 05:11:24 
15449832MShaun ReddyWashington DC6900:33:1623100:03:3019302:45:4832200:03:1912401:45:32 05:11:24 
PlaceBibAgSNAMEcity/stateRankSWIMRankT1RankBIKERankT2RankRUNPENALTYTIMEDQ
15542735MAlejandro EscobarArlington VA9000:33:4921300:03:2324202:49:596100:01:1610601:43:17 05:11:42 
15656829MLogan JohnsonVirginia Beach VA34600:45:1029500:04:1710402:35:4933800:03:4411501:44:28 05:13:26 
15727342MEmil VelasquezCary NC10600:34:2125200:03:4217002:43:0228000:02:4817201:49:54 05:13:45 
15836539MMatt KeiperVirginia Beach VA13100:35:2314400:02:4815602:41:393900:01:0820001:53:02 05:13:59 
15938338MChristopher HolbrookWashington DC13700:35:3919600:03:1518302:45:0520900:02:1014801:48:09 05:14:16 
16016945MDavid MillerGlen Allen VA9600:34:0429000:04:1120702:46:5118100:02:0014301:47:27 05:14:30 
16111249MKraig DiehlBeaver Falls PA21200:38:0919200:03:1212102:37:3218700:02:0120501:53:42 05:14:33 
16215746MGreg NoonanWashington DC17400:36:4334200:04:5619602:46:1623100:02:2211401:44:25 05:14:40 
16360226MJustin NunezWashington DC11300:34:3413000:02:4412902:38:5717200:01:5722901:56:32 05:14:41 
16431440MErik RayRichmond VA6000:32:4020600:03:2011002:36:3814900:01:4826002:00:41 05:15:05 
16549033MCraig WilliamsonTroy VA8100:33:3815400:02:5322702:48:3219600:02:0516201:49:06 05:16:11 
16647434MPatrick PannettWashington DC36100:47:0124100:03:3714802:40:575200:01:1310901:43:37 05:16:23 
16750731MJack EvelynVirginia Beach VA2900:29:4511000:02:3620502:46:4213800:01:4422301:55:44 05:16:29 
16823943MDavid GreenOak Hill VA33800:44:4015200:02:5215202:41:229500:01:2813101:46:20 05:16:40 
16943135MJuan MorenoArlington VA28300:41:125500:02:1213802:39:2926400:02:3918501:51:21 05:16:51 
17013048MSerge VanderbreetstraetenAlexandria VA21300:38:1012400:02:4211202:36:4714800:01:4823701:57:35 05:17:01 
17148033MAlex CastilloHerndon VA20600:37:4318500:03:0917502:43:4425800:02:3717801:50:16 05:17:27 
17225642MJeff DavisFairfax VA5900:32:2915700:02:5626502:53:0321600:02:1313901:46:57 05:17:37 
17363621MNicholas HuangClarksburg MD26400:40:1027600:04:0313502:39:1424600:02:3018801:51:48 05:17:43 
17437639MThomas WilsonWinston-Salem NC12500:35:0412600:02:4312402:38:0822400:02:1825301:59:41 05:17:52 
1757751MDaun SigafooseAbingdon MD4100:31:2215900:02:575602:29:1011700:01:3732002:13:09 05:18:14 
1762056MSteve CummingsAlexandria VA3400:30:4217400:03:0218102:44:5218800:02:0123801:57:41 05:18:16 
17749632MScott LearyWashington DC21000:38:0610900:02:3519802:46:1811000:01:3517301:49:55 05:18:27 
17839037MRichard AldacushionHerndon VA22900:38:4619700:03:1516902:43:0116300:01:5419101:51:51 05:18:45 
17938538MJoel MillerGlen Allen VA21500:38:1321000:03:214202:27:4529100:03:0130302:06:47 05:19:06 
18041636MTristan Morel L'horsetAlexandria VA16600:36:321800:01:5018602:45:203300:01:0721101:54:31 05:19:18 
1812656MSteve ThompsonChapel Hill NC23100:38:5125800:03:4518202:44:5513200:01:4217901:50:18 05:19:29 
18250831MBrandon FensterOmaha NE6300:32:5211900:02:403302:27:117600:01:2231802:11:4000:04:0005:19:43 
18360625MKevin BohmAlexandria VA25500:39:4427000:03:5521902:47:4415400:01:5013401:46:40 05:19:52 
18450332MRobert ZatlinQuantico VA30500:42:2210000:02:3123302:49:026400:01:1711801:45:06 05:20:15 
18561425MAlexander TorreyFalls Church VA32100:42:5918700:03:1018702:45:2438300:05:5810201:43:05 05:20:34 
PlaceBibAgSNAMEcity/stateRankSWIMRankT1RankBIKERankT2RankRUNPENALTYTIMEDQ
18649232MAlex ColonVienna VA27000:40:2029100:04:1118502:45:1125000:02:3215201:48:24 05:20:36 
18713647MJames GodekVa Beach VA21700:38:1837400:06:0813602:39:2221900:02:1521801:55:03 05:21:03 
18830540MMarcus LuczakHerndon VA13300:35:3424900:03:4123202:48:5229200:03:0217601:49:58 05:21:05 
18958028MJeff GlennerHighland Park IL35400:46:0632600:04:3817402:43:3815300:01:4911901:45:07 05:21:16 
19057728MMatt AveryArlington VA6400:32:5411100:02:3624502:51:0119100:02:0220101:53:05 05:21:36 
19117445MDon RodgersSandston VA30100:42:0424300:03:3722902:48:3721800:02:1412001:45:13 05:21:43 
19222644MEric MangelsdorfAlexandria VA8000:33:3728500:04:0714302:39:5429500:03:0426302:01:09 05:21:48 
19363920MDaniel McClellanAnnapolis MD12200:34:5420200:03:1922402:48:0019700:02:0520301:53:36 05:21:51 
19414447MBryan PowellMechanicsville VA22700:38:4115500:02:5310902:36:1919300:02:0427002:01:58 05:21:53 
19550631MShane DanaherPortsmouth VA17500:36:4426800:03:5418802:45:2622900:02:2120601:53:50 05:22:13 
19622244MGarth HorneFredericksburg VA34500:45:0822100:03:2519002:45:3419800:02:0613001:46:20 05:22:30 
19715246MChuck HarrisWinston-Salem NC17700:36:4519300:03:1417802:44:1424500:02:2922501:56:04 05:22:44 
19823344MDoug WeeksWestminster MD28700:41:2833800:04:5012602:38:4220400:02:0722401:55:46 05:22:51 
19924843MChip ShewbridgePotomac Falls VA26900:40:1822300:03:2621202:47:0512500:01:3818101:50:31 05:22:56 
20036339MAdrian FloresAshburn VA25400:39:4417900:03:0515402:41:2726300:02:3919401:52:0600:04:0005:22:59 
20115146MSteven HancockArlington VA13000:35:2122500:03:279802:35:2115000:01:4830902:07:42 05:23:38 
2025353MKevin O'ConnorMechanicsville VA26100:40:0521800:03:2430002:58:5722500:02:187101:39:06 05:23:48 
20341936MDavid RosenbaumRichmond VA27600:40:4719000:03:1125502:52:0514500:01:4713201:46:32 05:24:20 
20441436MEric MaxeinerBaltimore MD           05:25:00 
2055652MJoey BairdArlington VA26800:40:1830000:04:2112002:37:2921700:02:1426602:01:16 05:25:36 
20631940MRob WrightGlen Allen VA16500:36:2927400:04:0312302:37:5828600:02:5328502:04:40 05:26:01 
20711349MMark DupuisGlen Allen VA26700:40:1817600:03:0321702:47:244700:01:1220801:54:09 05:26:04 
20811549MJoseph JonesWoodbridge VA20900:38:0017200:03:0223902:49:4530700:03:1319901:52:58 05:26:56 
20927941MAravind ImmaneniHyderabad XX29600:41:4513500:02:469302:34:436500:01:1830202:06:31 05:27:00 
21049332MPatrick HaneyArlington VA1300:27:5419900:03:1625402:52:0425400:02:3426702:01:31 05:27:17 
21148633MAllan NgRichmond VA30200:42:054200:02:0623402:49:1217400:01:5819301:52:01 05:27:19 
21249932MDanny SerpicoColumbia MD2300:29:2711500:02:3822802:48:351900:01:0129802:05:55 05:27:34 
2131060MJohn GayleManakin Sabot VA11000:34:2322700:03:2917202:43:0512900:01:4028902:04:59 05:27:35 
21414946MJay CrabtreeRichmond VA19100:37:109200:02:2727102:53:307500:01:2120201:53:11 05:27:38 
21543735MBryan WilliamsArlington VA           05:27:39 
21630140MMatt JohnsReston VA31000:42:3924800:03:4021002:47:0016400:01:5419801:52:48 05:28:00 
PlaceBibAgSNAMEcity/stateRankSWIMRankT1RankBIKERankT2RankRUNPENALTYTIMEDQ
21721544MScott EngelbrechtCentreville VA31300:42:4915000:02:5127702:54:508500:01:2412801:46:09 05:28:01 
21862623MAnuj KapurBethesda MD25800:39:5316600:02:5924102:49:4715200:01:4920401:53:41 05:28:08 
21929140MRob AllenGlen Allen VA15800:36:1918100:03:0828802:56:3315900:01:5218001:50:21 05:28:12 
22031840MJohn WilsonFalls Church VA30400:42:1826900:03:5529902:58:2118600:02:009201:41:49 05:28:21 
22159926MMichael Di MarcoWashington DC29700:41:4838500:06:4222302:47:5131100:03:1416101:49:00 05:28:33 
22257429MJonathan StewartWashington DC19000:37:0935300:05:1319902:46:2231300:03:1523601:57:32 05:29:29 
22362324MChadwick McClureLynchburg VA14700:36:0316200:02:5828702:56:3118400:02:0019501:52:29 05:30:00 
2242556MThomas RandolphVirginia Beach VA27800:40:5420300:03:1920202:46:3835100:04:0622201:55:33 05:30:29 
22530740MJohn MussomeliWinston-Salem NC31600:42:5330200:04:2126102:52:5333500:03:3813501:46:47 05:30:30 
22652330MPaul HetterichMidlothian VA18000:36:4822400:03:2730502:59:2624300:02:2715601:48:40 05:30:46 
22731140MCarl PregenzerAlexandria VA30000:42:0030300:04:2124002:49:4634500:04:0218301:51:11 05:31:18 
2282756MJohn WakeRichmond VA8500:33:4329200:04:1228202:55:5816800:01:5622801:56:25 05:32:12 
22924243MBruce KlingerVirginia Beach VA17100:36:3729400:04:1415902:41:5626000:02:3730502:06:52 05:32:14 
23056429MRyan ClarkeRichmond VA32700:43:2436300:05:3713902:39:3429700:03:0626502:01:14 05:32:55 
2317551MWard SampsonReston VA26500:40:1625000:03:4121402:47:1233200:03:3524501:58:16 05:32:58 
23237239MPatrick ShagenaReston VA34700:45:1218600:03:1020902:46:5930000:03:0821301:54:52 05:33:18 
23324143MChris KaneSterling VA23400:39:1128100:04:0524602:51:0134800:04:0521501:54:58 05:33:18 
23427741MJames ErwinWashington DC19300:37:1229800:04:2127402:54:0625900:02:3722001:55:14 05:33:28 
2358050MMichael BaldwinRichmond VA28000:41:0521500:03:2325902:52:3213300:01:4221401:54:53 05:33:34 
23649432MRyan JohnsonWashington DC23600:39:1330700:04:2529702:58:1132100:03:1915701:48:41 05:33:47 
23761325MMichael PokoraRichmond VA36700:48:2613700:02:4622002:47:4822000:02:1619601:52:39 05:33:53 
23838138MMichael GorkowskiVienna VA28100:41:0631700:04:3130302:59:2312400:01:3814101:47:22 05:33:58 
23936639MRichard LinkonisRichmond VA18500:37:0017300:03:0225102:51:3525300:02:3325501:59:50 05:33:59 
24012748MDan MarvinCentreville VA15700:36:1816100:02:5731503:01:485600:01:1419001:51:48 05:34:03 
24139437MShannon EmeryRockville MD26200:40:1032800:04:4021302:47:0834300:04:0024401:58:10 05:34:07 
24260526MSean WamsleyAnnapolis MD21100:38:0833300:04:4327002:53:2731500:03:1521601:54:58 05:34:31 
24323743MScott FirestineHopewell VA34000:44:4712000:02:4018902:45:309100:01:2725702:00:12 05:34:33 
2446752MEd NorlanderCulpeper VA25200:39:349500:02:2825302:51:563200:01:0625101:59:37 05:34:40 
2456152MRick HyattHenrico VA23700:39:1611800:02:3926202:52:5428300:02:5023301:57:15 05:34:53 
24621844MBill FrittonVienna VA23000:38:5025300:03:4218402:45:0727400:02:4328702:04:44 05:35:03 
24738238MAndrew HofferVirginia Beach VA24700:39:3118000:03:0630602:59:2917300:01:5818701:51:42 05:35:44 
PlaceBibAgSNAMEcity/stateRankSWIMRankT1RankBIKERankT2RankRUNPENALTYTIMEDQ
24815346MRoger JohnsonRichmond VA11200:34:2816000:02:5730102:59:0721100:02:1123401:57:19 05:36:00 
24929740MDaniel DeptulaStafford VA15000:36:0423400:03:3227502:54:2534200:03:5825001:59:02 05:36:59 
25024543MWilliam RidgwayMidlothian VA16800:36:3325100:03:4220802:46:5726700:02:4130702:07:11 05:37:02 
25127142MDavid TuftsWinchester VA27900:40:5533500:04:4425702:52:2523400:02:2323201:57:06 05:37:32 
25228041MGreg LandisAshburn VA27100:40:2724400:03:3820402:46:4133400:03:3627802:03:32 05:37:52 
25356229MJonathan BerneArlington VA31200:42:4814100:02:4822602:48:3132300:03:2025902:00:29 05:37:54 
2544554MGuenther GrauExton PA23300:39:0228600:04:0719402:46:0131700:03:1629202:05:48 05:38:12 
25537039MJohn PercherkeBristow VA35000:45:4429300:04:1431003:00:0726900:02:4112301:45:30 05:38:15 
2568150MErnie CastroOak Hill VA15300:36:0825600:03:4428402:56:106600:01:1826902:01:45 05:39:04 
257663MLarry AtkinsWashington DC30600:42:2622800:03:2923002:48:3818300:02:0027202:02:53 05:39:25 
25838038MRodrigo GarciaCentreville VA38000:51:1520800:03:2128002:55:497300:01:2114401:47:45 05:39:28 
25922444MRobert JonesLeesburg VA29300:41:4023500:03:3322102:47:4823200:02:2228302:04:23 05:39:44 
26056529MBrian CookWashington DC25900:39:5720900:03:2129802:58:2133600:03:4121001:54:31 05:39:50 
26143635MDimitri WachtelBethesda MD35800:46:2716700:02:5923602:49:2718500:02:0024901:59:01 05:39:52 
26256929MJustin MikhalevskyWashington DC29400:41:4220500:03:2023802:49:4224700:02:3027302:02:53 05:40:05 
2636951MKeith AlstonChesapeake VA35200:45:5926600:03:5030402:59:2414300:01:4616701:49:31 05:40:29 
26423843MStephen GrassiSterling VA36500:47:2531200:04:2722502:48:2822300:02:1724001:57:58 05:40:32 
2657651MKevin ShawAlexandria VA22200:38:277800:02:1928902:56:3725500:02:3426202:00:46 05:40:41 
26657229MJim RudickWoodbridge VA10100:34:1418200:03:0828602:56:257400:01:2129302:05:50 05:40:56 
26748833MAdam TanverdiPotomac Falls VA23200:38:5212700:02:4325602:52:1927300:02:4328402:04:35 05:41:10 
26842136MRob StoneWarrenton VA25700:39:5333600:04:4526702:53:1137400:05:0524701:58:28 05:41:20 
26958928MWill TateWashington DC13500:35:3529600:04:1726602:53:0832600:03:2529102:05:34 05:41:57 
27031240MErnie PryorMaidens VA14300:35:5933400:04:4427202:53:3734700:04:0328102:03:37 05:41:58 
27116645MDavid GrafRockville VA24100:39:2425500:03:4326402:53:0026100:02:3827902:03:33 05:42:17 
27213847MGerson GraserCary NC39100:53:5115600:02:5519702:46:1730200:03:0823101:56:47 05:42:56 
27323244MMel TullRichmond VA31500:42:5117000:03:0032303:04:2328900:03:0017401:49:56 05:43:09 
27463021MNick BelotteMartinsburg WV19200:37:1216300:02:5929602:57:5135200:04:1326402:01:12 05:43:24 
27548133MDavid CliftonArlington VA22600:38:4026000:03:4628102:55:5620800:02:1027502:03:04 05:43:34 
27660326MPaul ScanlonRichmond VA34800:45:2139200:07:1334903:11:1330100:03:085601:37:10 05:44:04 
27717145MRon MorrisLexington Park MD10900:34:2210600:02:3324802:51:173600:01:0832702:14:49 05:44:09 
27836139MDaniel EhlertBroadlands VA27200:40:3422200:03:2624902:51:2627700:02:4430102:06:23 05:44:31 
PlaceBibAgSNAMEcity/stateRankSWIMRankT1RankBIKERankT2RankRUNPENALTYTIMEDQ
2791858MDavid HenryLivingston TX21600:38:1528900:04:1027602:54:4235900:04:2528002:03:36 05:45:05 
28012648MHenry LuptonKenly NC36300:47:176300:02:1523502:49:1215700:01:5128602:04:41 05:45:15 
28121944MRoger GalbraithGlen Allen VA           05:45:47 
2826852MWilliam OwenVirginia Beach VA28500:41:1220400:03:1926902:53:2512200:01:3830402:06:51 05:46:23 
28359227MBrandon DeweyVirginia Beach VA1900:29:0214800:02:5131703:02:2530500:03:0931502:09:49 05:47:14 
28411949MDow WalkerSouth Riding VA31700:42:5328700:04:0830702:59:3728400:02:5223901:57:47 05:47:15 
28515446MKeith MooreFallston MD27300:40:3831000:04:2626002:52:3828200:02:4930602:07:08 05:47:37 
28622344MG.T. JacksonBath NY24900:39:3329900:04:2124302:50:2534400:04:0131402:09:20 05:47:38 
28714647MChristopher VaughanWashington DC5100:32:0338100:06:2233503:08:2627200:02:4324201:58:07 05:47:39 
28860725MMichael CollinsBayport NY30700:42:2711700:02:3931303:00:5320100:02:0625201:59:38 05:47:42 
28959726MDavid BrennerArlington VA7900:33:3525900:03:4527902:55:4336400:04:3831702:10:21 05:48:00 
29058128MNathan HansenHaverhill MA24800:39:3321100:03:2119202:45:4129900:03:0833502:16:27 05:48:09 
29140137MJames RocheCentreville VA14800:36:0417100:03:0024402:50:5031900:03:1833402:15:49 05:49:00 
29213947MJames KleifgesVienna VA14400:36:0123800:03:3530903:00:0620000:02:0631002:08:16 05:50:02 
2934954MGlenn YoungMattaponi VA24000:39:2337700:06:1529002:57:1335000:04:0527602:03:10 05:50:04 
2947950MLou AndersenOmaha NE25100:39:3321600:03:2416202:42:2015500:01:5135002:23:13 05:50:19 
2956652MAl NavidiRockville MD37900:50:5823000:03:3029302:57:3414200:01:4623001:56:47 05:50:33 
29612548MRichard LeverCary NC31400:42:4924600:03:3926802:53:1520600:02:0831202:08:44 05:50:34 
2971659MTimothy FreezeWaynesboro VA36600:47:5427900:04:0432903:06:2836700:04:4214501:47:47 05:50:54 
29841336MBrent KynastonFredericksburg VA21900:38:2334300:04:5634803:11:0820300:02:0621201:54:42 05:51:13 
29961025MRob HallidayArlington VA16300:36:2726200:03:4733903:09:2236300:04:3623501:57:27 05:51:37 
30043235MEduardo SardinaWashington DC20000:37:3132200:04:3335103:11:4332500:03:2321901:55:04 05:52:12 
30128441MRichard MedfordGlen Allen VA29900:41:556500:02:1528302:56:0322100:02:1629702:05:5500:04:0005:52:22 
30261225MBen JohnsonLynchburg VA22800:38:4333100:04:4331203:00:4833700:03:4328802:04:55 05:52:49 
30346834MJon DillBowie MD21400:38:1210100:02:3122202:47:5120700:02:0834802:22:22 05:53:02 
30450531MJeff BerggrenAlexandria VA24200:39:2517500:03:0232403:05:2321200:02:1327702:03:28 05:53:30 
30513547MMassimo GiustiGlen Allen VA9500:34:0323200:03:3127302:53:4213100:01:4235102:23:16 05:56:12 
30616445MMichael BrownFredericksburg VA38400:52:0930900:04:2625002:51:2824900:02:3129602:05:54 05:56:26 
30752030MWesley GrahamSalisbury NC23800:39:2024700:03:4034303:09:5727600:02:4426802:01:34 05:57:13 
30843335MRicardo SolisEarlysville VA34400:44:5831800:04:3230202:59:1627000:02:4229902:05:56 05:57:22 
3092156MRick EnglishGlen Allen VA35700:46:2237300:06:0529402:57:4133300:03:3628202:03:46 05:57:27 
PlaceBibAgSNAMEcity/stateRankSWIMRankT1RankBIKERankT2RankRUNPENALTYTIMEDQ
31029340MTom BarbieriReston VA18200:36:5236600:05:4226302:52:5539300:07:2732602:14:49 05:57:42 
31123144MGary TrullingerDurham NC35600:46:1327500:04:0330802:59:4926600:02:4129002:05:04 05:57:48 
31225942MMatt HurtgenEvanston IL19800:37:2630100:04:2135703:14:1623700:02:2526102:00:44 05:59:09 
31360126MMatthew McGehrinSeverna Park MD24400:39:2727300:04:0029102:57:3029000:03:0033102:15:17 05:59:13 
31456329MAndrew CampbellCulpeper VA34100:44:4832900:04:4135903:14:4131000:03:1319201:51:54 05:59:15 
31559027MSteven ArchibaldRadford VA33600:44:1338800:06:5033003:06:5037900:05:2622701:56:15 05:59:32 
31625542MJoshua BruchMidlothian VA22100:38:2735900:05:3132603:05:5528800:02:5630802:07:25 06:00:12 
3176052MSteven HerronChesapeake VA35300:46:0327800:04:0314902:41:0717900:01:5936502:27:47 06:00:57 
31851031MMark LauverArlington VA36000:46:4727700:04:0335503:13:2332400:03:2220901:54:19 06:01:53 
31957928MAdam ChaneyRuther Glen VA25000:39:3336400:05:3833803:09:0738000:05:2924801:58:3800:04:0006:02:24 
32024343MNeil KnickerbockerOak Hill VA17000:36:3634100:04:5225802:52:3035400:04:1635402:24:26 06:02:38 
32152130MJacob HalladayArlington VA17600:36:4531500:04:2932803:06:2131600:03:1631902:11:58 06:02:47 
32270528MMichael SuominenMelbourne FL23900:39:2331400:04:2923102:48:4237300:05:0536102:26:23 06:04:00 
32326942MJames ThorneAlexandria VA13200:35:2837100:06:0236003:14:4636800:04:4927402:02:59 06:04:02 
32423543MMatthew FahyChesterfield VA9800:34:0938900:06:5336403:15:2239400:07:5525601:59:58 06:04:14 
32516246MSteve VekonyArlington VA38300:52:0840000:08:5132003:03:2835500:04:2022601:56:14 06:04:59 
3261260MBob YoungMcLean VA31100:42:4235800:05:2632203:04:0234100:03:5831302:08:56 06:05:02 
32764218MJoshua FordSterling VA18300:36:5424000:03:3633203:07:4420200:02:0632802:14:49 06:05:08 
32856129MGreg BarnhartWashington DC7700:33:3236100:05:3537703:23:2030800:03:1325802:00:15 06:05:52 
32947933MMichael BolandWashington DC30900:42:3623900:03:3633703:08:5824400:02:2731602:10:11 06:07:47 
33042635MMiguel CuyaClifton VA39200:53:5332400:04:3531403:00:5731400:03:1529402:05:51 06:08:30 
33139937MMatt McCormackAlexandria VA27500:40:4034600:05:0128502:56:1136100:04:2734702:22:17 06:08:34 
33239537MBrad JohnsonMechanicsville VA27400:40:389300:02:2833103:07:2526500:02:3933702:17:34 06:10:42 
33342036MDavid ShandChesterfield VA28600:41:1728200:04:0636303:15:1121500:02:1331102:08:20 06:11:05 
33415546MJeffrey MoorePotomac MD39700:55:1919500:03:1434403:10:3425700:02:3527102:02:25 06:14:05 
33514846MChristopher BlakeFork MD33700:44:1535700:05:2431603:02:0333900:03:4534202:19:08 06:14:33 
3364854MJohn SteffensChapel Hill NC28800:41:3232700:04:3829202:57:3435300:04:1536302:27:14 06:15:12 
33758828MJacob Stevens-KittnerWashington DC19400:37:1537800:06:1639403:33:0512700:01:3924101:58:07 06:16:19 
33843835MGrant WillisSilver Spring MD17200:36:4131900:04:3233303:08:2029800:03:0635302:23:58 06:16:35 
339761MCharles BagwellMidlothian VA33300:43:5637500:06:1034203:09:4929300:03:0332302:13:58 06:16:54 
34059627MEugene WuBethesda MD39400:54:1635200:05:1237103:19:2411200:01:3525401:59:47 06:20:11 
PlaceBibAgSNAMEcity/stateRankSWIMRankT1RankBIKERankT2RankRUNPENALTYTIMEDQ
34115046MFermin De La JaraLake Ridge VA15400:36:1035400:05:1434103:09:3938100:05:5435602:24:33 06:21:28 
34257129MRobert PierceFalls Church VA33500:44:1033900:04:5031903:03:1918000:01:5936402:27:16 06:21:33 
34315646MMark MullenArlington VA39500:54:5923700:03:3531803:03:1415800:01:5233902:18:07 06:21:45 
34414247MHugh MooneyWashington Dc DC30300:42:1026500:03:4935403:13:1037700:05:1134402:20:52 06:25:09 
3451957MMasaki TakahashiMcLean VA37000:48:5836800:05:4818002:44:3025200:02:3338402:43:35 06:25:22 
34651830MAlex FurnoSilver Spring MD32600:43:2436500:05:4238103:24:1839000:06:3429502:05:54 06:25:49 
34759127MRob BerraAlexandria VA39300:53:5938600:06:4532703:06:1537100:05:0232502:14:36 06:26:34 
34829940MGlen HattonRichmond VA32300:43:0534700:05:0127802:55:1830400:03:0938102:40:25 06:26:56 
34916845MSean MaloyCarmichaels PA15900:36:2533700:04:4737203:20:1426800:02:4135702:24:56 06:29:02 
3505553MRodney RubinSilver Spring MD21800:38:1830600:04:2532503:05:4324200:02:2637802:38:56 06:29:47 
35136439MMoises JaramilloSterling VA35900:46:2824500:03:3837903:24:0224100:02:2632402:13:58 06:30:32 
3525253MJames ManningCentreville VA33100:43:5339900:08:5035003:11:3136900:04:5334602:22:16 06:31:21 
35358428MSteven LongBethesda MD22400:38:2828400:04:0734003:09:3116100:01:5337602:37:53 06:31:50 
3542456MRobert PlatenbergMcLean VA32000:42:5937900:06:1738203:24:4836000:04:2732102:13:22 06:31:51 
35557329MThomas SteshkoWoodbridge VA36800:48:3815300:02:5231103:00:0813700:01:4438202:41:00 06:34:20 
35628641MDirk SmithWashington DC36400:47:1727100:03:5736503:15:3332700:03:2635502:24:30 06:34:41 
35726042MGary KartonArlington VA29800:41:4932300:04:3438603:28:0123500:02:2434002:18:12 06:34:59 
35839637MJoe KennedyChester VA100:24:0840500:19:5436703:17:5031200:03:1436702:30:05 06:35:09 
35950232MFrantisek SovaTowson MD33200:43:5639100:07:1138403:27:0130300:03:0933002:15:03 06:36:17 
36041536MCraig MiddledorfOlney MD37800:50:5636200:05:3739203:31:4629600:03:0530002:06:05 06:37:26 
36147833MRyan AndrewsMechanicsville VA28900:41:3440400:16:1234603:10:4838500:06:0235202:23:16 06:37:50 
36242435MSean CarleyRichmond VA38800:53:1432100:04:3334703:10:4938600:06:0434902:23:12 06:37:50 
3632955MJim RauerLorton VA30800:42:3439600:08:1233603:08:5238900:06:1836902:32:25 06:38:20 
36440536MNavid AhrarianVienna VA37100:49:0138700:06:4537403:21:3039100:06:5232902:14:50 06:38:55 
3654454MLarry FriedkinMoseley VA31800:42:5436900:05:4936103:14:4839200:07:2536602:28:09 06:39:03 
36613347MJay BargeronSpringfield VA38100:51:2437200:06:0335303:13:0329400:03:0436002:26:14 06:39:46 
36730240MMarc KennedyArlington VA26000:39:5818900:03:1139003:29:4138200:05:5734502:22:11 06:40:56 
36816545MGregory DumontAlexandria VA18900:37:0924200:03:3736803:17:5337200:05:0537502:37:39 06:41:20 
369564MMelvin CookseyCoventryville PA35500:46:0835000:05:1139303:32:2519200:02:0333302:15:42 06:41:26 
37028241MRobert MapleFredericksburg VA35100:45:4830500:04:2433403:08:2132900:03:3137902:39:54 06:41:56 
3717351MNathaniel Johnson JrWoodbridge VA37600:50:1831600:04:2937603:22:0023600:02:2434102:18:5600:04:0006:42:06 
PlaceBibAgSNAMEcity/stateRankSWIMRankT1RankBIKERankT2RankRUNPENALTYTIMEDQ
37224943MDennis ShineWashington DC29000:41:3439000:07:0339103:30:1533100:03:3434302:20:41 06:43:06 
37351131MTimmothy McShaneWashington DC37500:50:1738000:06:2029502:57:4637600:05:0838502:43:43 06:43:12 
37427641MJohn ColbyAshburn VA38500:52:3940300:13:0535803:14:4038800:06:1333602:16:44 06:43:19 
37531540MJosh ReeceCrofton MD38600:52:5135600:05:2234503:10:3834600:04:0237102:32:50 06:45:41 
37657529MRob Van HooserAlexandria VA40401:07:0230800:04:2537003:18:5632000:03:1832202:13:33 06:47:13 
37738638MLance NoblesNewport News VA34900:45:2926400:03:4936903:18:5535700:04:2137402:35:47 06:48:20 
37848533MBrendan MullenWashington DC34200:44:5339500:07:4036603:17:4138400:06:0237002:32:34 06:48:49 
3792356MGlenn LillyVinton VA36900:48:5339400:07:3435203:12:1127800:02:4637702:37:55 06:49:18 
38029640MPatrick DebonoChester VA37300:49:1738300:06:3838003:24:1336500:04:3935802:25:04 06:49:48 
3815952MDouglas HartmanSpringfield VA40000:58:5231300:04:2837503:21:4410600:01:3235902:25:11 06:51:45 
38224043MBilly HamiltonAshburn VA40501:13:3831100:04:2735603:13:4836200:04:3333802:17:38 06:54:01 
3838350MJim HowardAlexandria VA36200:47:0435500:05:2038303:26:2333000:03:3136802:32:21 06:54:37 
38440437MJorge VasquezFairfax VA39000:53:4840100:10:2039503:34:1937000:05:0133202:15:19 06:58:45 
38511449MMichael EuripidesFredericksburg VA32500:43:1939300:07:2637803:23:5937800:05:1138302:41:41 07:01:34 
38613747MKai GoodrichArlington VA37200:49:0338400:06:4138903:29:3827900:02:4837302:33:45 07:01:53 
38726642MJohn PanekBowie MD37700:50:3434900:05:0836203:15:0934000:03:5639002:51:4200:04:0007:10:27 
388268MHugh AllenWashington DC39800:56:1239700:08:1438803:28:1327100:02:4238602:44:42 07:20:01 
38950132MBrian SnyderMineral VA40100:59:0534000:04:5039803:40:4332800:03:3037202:33:21 07:21:28 
39051431MJames StewartFalls Church VA34300:44:5526700:03:5338703:28:0436600:04:4039203:05:12 07:26:43 
3913055MMark ShankHarrisonburg VA39900:56:4433000:04:4239603:35:4437500:05:0538702:45:01 07:27:14 
39221644MChris EuripidesFairfax Station VA38900:53:1936000:05:3340203:56:5238700:06:0636202:26:24 07:28:13 
39350032MMichael SerrateRichmond VA39600:55:1533200:04:4340103:44:4735600:04:2038002:40:2300:04:0007:33:26 
3945153MBarry BylundVienna VA38700:52:5839800:08:4340003:41:1739500:08:2738902:50:17 07:41:39 
39537838MRobert DaviesFredericksburg VA38200:51:3934400:04:5940404:06:4135800:04:2438802:48:11 07:55:52 
39623643MMichael FergusonVinton VA37400:50:1138200:06:2540304:05:4723000:02:2139103:01:01 08:05:44 
39721744MJohn FitzgeraldChesapeake VA16900:36:362300:01:528702:33:383800:01:08 DNF DNF 
39848333MJeffrey GreeneArlington VA10400:34:1819800:03:1521102:47:0221000:02:10 DNF DNF 
39959427MAndrew MarquardtGreat Falls VA28400:41:1226100:03:466002:29:2324800:02:31 DNF DNF 
40070057MJim MyersGainesville VA11600:34:496700:02:1514502:40:00     ABM 
40163121MZach BenderHatboro PA20800:37:461400:01:4613102:38:59     ABM 
40265153MBill GaryAshland VA22300:38:2819400:03:1423702:49:32     ABM 
PlaceBibAgSNAMEcity/stateRankSWIMRankT1RankBIKERankT2RankRUNPENALTYTIMEDQ
40365953MGlenn StephensWashington Dc DC11700:34:5223600:03:3532103:03:45     ABM 
40465344MJeff McIntyreCabin John MD33900:44:4628800:04:0837303:21:04     ABM 
40550431MMatt AndersonWoodrbidge VA40200:59:1236700:05:4439903:40:46     ABM 
406366MJohn HunnicuttGlen Allen VA33400:44:1016900:03:0038503:27:41     ABM 
407466MTerrence TimkoN.Huningdon PA33000:43:4228000:04:05       DNF 
4083155MStanley SmithYork PA40301:06:1440200:10:31       DNF 
40930640MPeng MokMorrisville NC40601:31:2237600:06:1539703:37:12     DNF 
41031040MPavol PopovicWashington DC16400:36:2837000:05:598102:32:54     DNF 

** Results are for the private use of participants and are the Intellectual Property of Set Up Events. Unauthorized use of these results is prohibited.